createdAt,value
2022-09-03T00:00:06.317Z,98694.81
2022-09-03T00:02:46.473Z,98701.16
2022-09-03T00:05:19.212Z,98697.56
2022-09-03T00:07:57.942Z,98704.16
2022-09-03T00:10:41.640Z,98698.66
2022-09-03T00:13:08.770Z,98690.38
2022-09-03T00:15:36.388Z,98690.69
2022-09-03T00:18:07.727Z,98692.63
2022-09-03T00:20:41.636Z,98696.19
2022-09-03T00:23:10.580Z,98687.38
2022-09-03T00:25:50.770Z,98685.44
2022-09-03T00:28:30.501Z,98679.09
2022-09-03T00:31:29.227Z,98676.66
2022-09-03T00:34:03.273Z,98669.22
2022-09-03T00:36:42.432Z,98674.97
2022-09-03T00:39:14.419Z,98668.66
2022-09-03T00:42:10.142Z,98669.75
2022-09-03T00:44:55.848Z,98671.94
2022-09-03T00:47:50.036Z,98675.53
2022-09-03T00:50:35.467Z,98672.78
2022-09-03T00:53:17.768Z,98671.13
2022-09-03T00:55:49.796Z,98667.53
2022-09-03T00:58:35.195Z,98671.38
2022-09-03T01:01:15.490Z,98671.38
2022-09-03T01:04:01.451Z,98671.38
2022-09-03T01:06:54.298Z,98666.16
2022-09-03T01:10:02.971Z,98671.66
2022-09-03T01:13:13.570Z,98674.41
2022-09-03T01:16:12.713Z,98674.69
2022-09-03T01:19:18.387Z,98671.38
2022-09-03T01:22:40.777Z,98683.22
2022-09-03T01:25:41.281Z,98673.59
2022-09-03T01:28:13.921Z,98679.94
2022-09-03T01:30:42.962Z,98673.59
2022-09-03T01:33:12.704Z,98683.78
2022-09-03T01:35:49.232Z,98690.38
2022-09-03T01:38:47.553Z,98688.72
2022-09-03T01:41:45.064Z,98689.53
2022-09-03T01:44:21.844Z,98685.13
2022-09-03T01:46:51.423Z,98687.06
2022-09-03T01:49:44.608Z,98689.81
2022-09-03T01:52:18.165Z,98689.81
2022-09-03T01:55:05.552Z,98690.91
2022-09-03T01:57:46.228Z,98690.34
2022-09-03T02:00:20.374Z,98693.09
2022-09-03T02:02:49.299Z,98690.34
2022-09-03T02:05:24.946Z,98689.78
2022-09-03T02:08:03.035Z,98687.03
2022-09-03T02:10:47.508Z,98682.34
2022-09-03T02:13:18.716Z,98681.53
2022-09-03T02:15:46.696Z,98672.69
2022-09-03T02:18:23.292Z,98684.28
2022-09-03T02:20:50.214Z,98690.88
2022-09-03T02:23:17.143Z,98691.97
2022-09-03T02:25:45.981Z,98690.31
2022-09-03T02:28:17.185Z,98688.38
2022-09-03T02:30:44.848Z,98687.56
2022-09-03T02:33:11.778Z,98686.72
2022-09-03T02:35:40.717Z,98693.06
2022-09-03T02:38:21.394Z,98699.66
2022-09-03T02:40:48.399Z,98692.25
2022-09-03T02:43:18.973Z,98694.44
2022-09-03T02:45:48.187Z,98695.81
2022-09-03T02:48:17.467Z,98689.47
2022-09-03T02:50:44.330Z,98691.13
2022-09-03T02:53:11.206Z,98690.28
2022-09-03T02:55:38.122Z,98694.72
2022-09-03T02:58:07.101Z,98696.63
2022-09-03T03:00:34.027Z,98701.31
2022-09-03T03:03:00.930Z,98699.69
2022-09-03T03:05:33.788Z,98694.97
2022-09-03T03:08:01.634Z,98700.47
2022-09-03T03:10:28.457Z,98696.94
2022-09-03T03:12:55.538Z,98694.44
2022-09-03T03:15:22.700Z,98701.03
2022-09-03T03:17:49.673Z,98693.59
2022-09-03T03:20:16.666Z,98691.13
2022-09-03T03:22:43.535Z,98692.22
2022-09-03T03:25:10.427Z,98698.81
2022-09-03T03:27:40.020Z,98697.16
2022-09-03T03:30:10.078Z,98700.75
2022-09-03T03:32:37.784Z,98697.16
2022-09-03T03:35:05.079Z,98703.50
2022-09-03T03:37:32.244Z,98711.75
2022-09-03T03:39:59.293Z,98715.59
2022-09-03T03:42:26.225Z,98710.09
2022-09-03T03:44:53.083Z,98708.44
2022-09-03T03:47:19.951Z,98707.59
2022-09-03T03:49:46.833Z,98713.13
2022-09-03T03:52:13.791Z,98707.59
2022-09-03T03:54:40.674Z,98705.16
2022-09-03T03:57:07.555Z,98704.06
2022-09-03T03:59:34.460Z,98705.97
2022-09-03T04:02:01.383Z,98704.56
2022-09-03T04:04:28.493Z,98699.06
2022-09-03T04:06:55.356Z,98701.81
2022-09-03T04:09:22.635Z,98701.81
2022-09-03T04:11:51.031Z,98696.88
2022-09-03T04:14:21.117Z,98688.88
2022-09-03T04:16:47.954Z,98690.53
2022-09-03T04:19:14.859Z,98690.53
2022-09-03T04:21:41.731Z,98679.78
2022-09-03T04:24:08.662Z,98685.84
2022-09-03T04:26:35.617Z,98690.78
2022-09-03T04:29:09.417Z,98693.53
2022-09-03T04:31:37.006Z,98694.38
2022-09-03T04:34:06.658Z,98688.34
2022-09-03T04:36:35.274Z,98693.53
2022-09-03T04:39:02.170Z,98696.59
2022-09-03T04:41:30.071Z,98706.75
2022-09-03T04:43:58.368Z,98701.25
2022-09-03T04:46:26.847Z,98708.69
2022-09-03T04:48:54.575Z,98708.69
2022-09-03T04:51:27.425Z,98707.03
2022-09-03T04:53:57.166Z,98711.69
2022-09-03T04:56:25.989Z,98713.63
2022-09-03T04:58:57.760Z,98726.28
2022-09-03T05:01:26.064Z,98726.28
2022-09-03T05:03:54.544Z,98721.06
2022-09-03T05:06:21.431Z,98723.00
2022-09-03T05:08:49.237Z,98726.56
2022-09-03T05:11:17.356Z,98722.16
2022-09-03T05:13:49.203Z,98731.25
2022-09-03T05:16:16.175Z,98722.16
2022-09-03T05:18:43.083Z,98722.16
2022-09-03T05:21:11.444Z,98721.34
2022-09-03T05:23:39.688Z,98724.91
2022-09-03T05:26:11.235Z,98732.34
2022-09-03T05:28:39.343Z,98727.09
2022-09-03T05:31:10.939Z,98726.00
2022-09-03T05:33:39.267Z,98729.84
2022-09-03T05:36:07.758Z,98730.94
2022-09-03T05:38:34.816Z,98733.69
2022-09-03T05:41:04.630Z,98734.50
2022-09-03T05:43:31.989Z,98739.19
2022-09-03T05:46:02.018Z,98740.31
2022-09-03T05:48:32.551Z,98724.88
2022-09-03T05:51:10.584Z,98730.41
2022-09-03T05:53:39.131Z,98726.56
2022-09-03T05:56:07.730Z,98724.88
2022-09-03T05:58:35.583Z,98723.81
2022-09-03T06:01:13.925Z,98723.22
2022-09-03T06:03:41.907Z,98722.13
2022-09-03T06:06:08.890Z,98728.72
2022-09-03T06:08:36.132Z,98725.97
2022-09-03T06:11:06.393Z,98720.72
2022-09-03T06:13:33.604Z,98721.31
2022-09-03T06:16:01.620Z,98728.72
2022-09-03T06:18:28.644Z,98720.72
2022-09-03T06:20:56.613Z,98729.81
2022-09-03T06:23:24.260Z,98727.91
2022-09-03T06:26:05.037Z,98726.22
2022-09-03T06:28:36.770Z,98723.78
2022-09-03T06:31:05.383Z,98725.44
2022-09-03T06:33:33.954Z,98721.56
2022-09-03T06:36:03.754Z,98719.09
2022-09-03T06:38:33.683Z,98732.56
2022-09-03T06:41:03.626Z,98731.75
2022-09-03T06:43:32.023Z,98731.75
2022-09-03T06:46:03.374Z,98730.09
2022-09-03T06:48:31.508Z,98724.59
2022-09-03T06:51:05.711Z,98730.94
2022-09-03T06:53:36.480Z,98738.38
2022-09-03T06:56:06.288Z,98736.44
2022-09-03T06:58:38.949Z,98741.94
2022-09-03T07:01:07.833Z,98743.56
2022-09-03T07:03:38.052Z,98743.03
2022-09-03T07:06:09.139Z,98744.69
2022-09-03T07:08:36.142Z,98756.25
2022-09-03T07:11:06.279Z,98754.31
2022-09-03T07:13:33.820Z,98749.06
2022-09-03T07:16:01.839Z,98752.41
2022-09-03T07:18:28.790Z,98752.41
2022-09-03T07:21:03.207Z,98757.91
2022-09-03T07:23:30.333Z,98754.06
2022-09-03T07:25:58.081Z,98750.19
2022-09-03T07:28:25.244Z,98750.19
2022-09-03T07:30:53.031Z,98750.19
2022-09-03T07:33:19.994Z,98740.84
2022-09-03T07:35:47.361Z,98746.34
2022-09-03T07:38:20.206Z,98741.69
2022-09-03T07:40:47.449Z,98749.09
2022-09-03T07:43:14.394Z,98747.19
2022-09-03T07:45:41.531Z,98751.59
2022-09-03T07:48:08.466Z,98753.53
2022-09-03T07:50:39.455Z,98758.75
2022-09-03T07:53:06.399Z,98760.69
2022-09-03T07:55:33.938Z,98755.19
2022-09-03T07:58:00.799Z,98759.59
2022-09-03T08:00:28.648Z,98760.69
2022-09-03T08:02:56.809Z,98752.16
2022-09-03T08:05:23.739Z,98752.97
2022-09-03T08:07:51.179Z,98758.47
2022-09-03T08:10:18.152Z,98749.13
2022-09-03T08:12:44.992Z,98756.56
2022-09-03T08:15:11.873Z,98760.97
2022-09-03T08:17:38.723Z,98754.63
2022-09-03T08:20:05.866Z,98762.63
2022-09-03T08:22:32.747Z,98763.72
2022-09-03T08:25:00.695Z,98763.47
2022-09-03T08:27:27.943Z,98770.88
2022-09-03T08:29:55.213Z,98771.72
2022-09-03T08:32:23.086Z,98757.97
2022-09-03T08:34:50.995Z,98770.34
2022-09-03T08:37:18.105Z,98762.91
2022-09-03T08:39:45.584Z,98773.66
2022-09-03T08:42:31.101Z,98770.09
2022-09-03T08:45:02.843Z,98768.97
2022-09-03T08:47:41.571Z,98764.59
2022-09-03T08:50:24.408Z,98759.06
2022-09-03T08:52:51.702Z,98760.72
2022-09-03T08:55:23.838Z,98756.88
2022-09-03T08:58:12.213Z,98756.88
2022-09-03T09:01:03.276Z,98754.13
2022-09-03T09:03:48.220Z,98751.38
2022-09-03T09:06:17.885Z,98746.44
2022-09-03T09:09:16.096Z,98751.38
2022-09-03T09:12:09.988Z,98746.44
2022-09-03T09:15:05.688Z,98745.34
2022-09-03T09:17:56.390Z,98737.09
2022-09-03T09:20:50.538Z,98738.72
2022-09-03T09:23:26.166Z,98744.78
2022-09-03T09:25:53.121Z,98736.78
2022-09-03T09:28:22.308Z,98736.53
2022-09-03T09:30:51.695Z,98742.03
2022-09-03T09:33:19.803Z,98749.47
2022-09-03T09:35:46.887Z,98746.72
2022-09-03T09:38:13.861Z,98750.28
2022-09-03T09:40:44.798Z,98748.38
2022-09-03T09:43:16.514Z,98744.78
2022-09-03T09:45:44.890Z,98744.78
2022-09-03T09:48:17.440Z,98740.94
2022-09-03T09:50:44.370Z,98757.47
2022-09-03T09:53:18.188Z,98759.09
2022-09-03T09:56:03.104Z,98769.00
2022-09-03T09:58:33.247Z,98771.78
2022-09-03T10:01:14.935Z,98761.31
2022-09-03T10:03:49.363Z,98763.50
2022-09-03T10:06:34.890Z,98759.09
2022-09-03T10:09:18.117Z,98761.59
2022-09-03T10:12:14.711Z,98752.50
2022-09-03T10:14:56.057Z,98753.59
2022-09-03T10:17:44.633Z,98759.94
2022-09-03T10:20:28.061Z,98752.50
2022-09-03T10:22:57.557Z,98750.56
2022-09-03T10:25:41.824Z,98754.41
2022-09-03T10:28:10.016Z,98756.09
2022-09-03T10:30:48.953Z,98750.56
2022-09-03T10:33:20.404Z,98758.56
2022-09-03T10:35:53.180Z,98747.56
2022-09-03T10:38:37.029Z,98754.72
2022-09-03T10:41:32.814Z,98760.25
2022-09-03T10:44:49.144Z,98754.72
2022-09-03T10:47:38.729Z,98760.25
2022-09-03T10:50:08.821Z,98756.38
2022-09-03T10:52:41.440Z,98756.66
2022-09-03T10:55:44.445Z,98759.41
2022-09-03T10:58:27.659Z,98757.75
2022-09-03T11:00:58.418Z,98759.66
2022-09-03T11:03:49.951Z,98758.56
2022-09-03T11:06:42.965Z,98757.50
2022-09-03T11:09:17.985Z,98753.06
2022-09-03T11:11:47.900Z,98753.06
2022-09-03T11:14:16.386Z,98748.41
2022-09-03T11:16:49.042Z,98756.38
2022-09-03T11:19:20.450Z,98747.56
2022-09-03T11:21:47.713Z,98750.84
2022-09-03T11:24:24.581Z,98752.53
2022-09-03T11:26:57.917Z,98745.09
2022-09-03T11:29:39.190Z,98751.44
2022-09-03T11:32:11.926Z,98752.53
2022-09-03T11:34:52.322Z,98742.34
2022-09-03T11:37:24.890Z,98747.03
2022-09-03T11:39:59.162Z,98741.50
2022-09-03T11:42:30.493Z,98726.66
2022-09-03T11:45:20.581Z,98729.41
2022-09-03T11:47:47.821Z,98728.31
2022-09-03T11:50:24.818Z,98723.06
2022-09-03T11:52:54.414Z,98721.97
2022-09-03T11:55:52.068Z,98715.66
2022-09-03T11:58:25.590Z,98718.41
2022-09-03T12:00:54.286Z,98714.56
2022-09-03T12:03:28.686Z,98717.31
2022-09-03T12:05:58.139Z,98718.13
2022-09-03T12:08:43.793Z,98721.69
2022-09-03T12:11:48.680Z,98718.94
2022-09-03T12:14:36.704Z,98709.59
2022-09-03T12:17:08.892Z,98703.25
2022-09-03T12:19:53.263Z,98707.66
2022-09-03T12:22:22.298Z,98711.25
2022-09-03T12:24:50.943Z,98711.25
2022-09-03T12:27:26.283Z,98699.16
2022-09-03T12:30:00.393Z,98694.19
2022-09-03T12:32:38.485Z,98693.34
2022-09-03T12:38:10.630Z,98695.84
2022-09-03T12:41:23.629Z,98690.34
2022-09-03T12:43:38.291Z,98682.63
2022-09-03T12:46:13.731Z,98684.31
2022-09-03T12:48:47.152Z,98678.00
2022-09-03T12:54:01.522Z,98674.13
2022-09-03T12:56:29.189Z,98669.44
2022-09-03T12:59:01.770Z,98674.94
2022-09-03T13:01:31.522Z,98687.88
2022-09-03T13:04:12.784Z,98681.53
2022-09-03T13:06:45.517Z,98683.22
2022-09-03T13:09:12.390Z,98684.31
2022-09-03T13:11:39.480Z,98679.63
2022-09-03T13:14:11.403Z,98678.53
2022-09-03T13:16:38.268Z,98672.75
2022-09-03T13:19:19.615Z,98668.91
2022-09-03T13:22:09.489Z,98673.03
2022-09-03T13:24:44.991Z,98664.50
2022-09-03T13:27:30.163Z,98673.31
2022-09-03T13:30:14.648Z,98671.38
2022-09-03T13:32:44.256Z,98660.09
2022-09-03T13:35:37.340Z,98657.88
2022-09-03T13:38:19.318Z,98654.03
2022-09-03T13:40:50.102Z,98655.69
2022-09-03T13:43:33.785Z,98657.38
2022-09-03T13:46:37.296Z,98664.50
2022-09-03T13:49:45.616Z,98658.72
2022-09-03T13:52:22.562Z,98656.81
2022-09-03T13:54:57.783Z,98656.53
2022-09-03T13:58:01.691Z,98661.75
2022-09-03T14:00:40.460Z,98656.25
2022-09-03T14:03:32.354Z,98661.75
2022-09-03T14:06:22.092Z,98662.59
2022-09-03T14:08:58.905Z,98664.25
2022-09-03T14:11:33.106Z,98657.91
2022-09-03T14:14:20.821Z,98664.25
2022-09-03T14:16:55.624Z,98657.91
2022-09-03T14:19:47.408Z,98658.72
2022-09-03T14:22:26.238Z,98661.50
2022-09-03T14:25:09.765Z,98654.59
2022-09-03T14:27:36.863Z,98659.84
2022-09-03T14:30:17.874Z,98663.41
2022-09-03T14:33:15.762Z,98657.06
2022-09-03T14:35:51.667Z,98667.00
2022-09-03T14:38:35.168Z,98661.75
2022-09-03T14:41:17.043Z,98665.06
2022-09-03T14:43:54.013Z,98657.91
2022-09-03T14:46:43.038Z,98652.41
2022-09-03T14:49:31.428Z,98651.31
2022-09-03T14:52:25.407Z,98654.06
2022-09-03T14:55:26.228Z,98657.91
2022-09-03T14:58:40.688Z,98654.06
2022-09-03T15:01:25.140Z,98646.06
2022-09-03T15:04:29.200Z,98645.78
2022-09-03T15:07:33.435Z,98641.38
2022-09-03T15:10:10.516Z,98641.38
2022-09-03T15:12:53.061Z,98634.78
2022-09-03T15:15:22.045Z,98626.50
2022-09-03T15:18:00.721Z,98628.69
2022-09-03T15:20:47.079Z,98632.03
2022-09-03T15:23:52.437Z,98639.72
2022-09-03T15:26:23.257Z,98639.72
2022-09-03T15:28:55.948Z,98636.69
2022-09-03T15:31:40.789Z,98631.19
2022-09-03T15:34:20.643Z,98641.38
2022-09-03T15:36:51.042Z,98631.19
2022-09-03T15:39:25.800Z,98626.78
2022-09-03T15:41:57.266Z,98635.03
2022-09-03T15:44:24.459Z,98628.69
2022-09-03T15:46:57.144Z,98639.72
2022-09-03T15:49:45.002Z,98635.88
2022-09-03T15:52:40.603Z,98640.56
2022-09-03T15:55:12.142Z,98643.03
2022-09-03T15:58:19.552Z,98641.38
2022-09-03T16:00:51.874Z,98648.56
2022-09-03T16:03:32.222Z,98640.56
2022-09-03T16:06:02.649Z,98655.16
2022-09-03T16:08:34.451Z,98650.75
2022-09-03T16:11:10.316Z,98653.78
2022-09-03T16:13:46.036Z,98652.97
2022-09-03T16:16:16.586Z,98655.16
2022-09-03T16:19:05.247Z,98653.47
2022-09-03T16:21:43.510Z,98658.19
2022-09-03T16:24:14.607Z,98656.53
2022-09-03T16:26:57.079Z,98667.25
2022-09-03T16:29:28.506Z,98654.59
2022-09-03T16:32:20.235Z,98659.00
2022-09-03T16:34:53.435Z,98658.47
2022-09-03T16:37:25.857Z,98656.53
2022-09-03T16:40:24.493Z,98663.69
2022-09-03T16:43:29.992Z,98659.28
2022-09-03T16:46:19.383Z,98655.69
2022-09-03T16:49:05.031Z,98659.28
2022-09-03T16:51:53.022Z,98661.22
2022-09-03T16:54:28.994Z,98672.22
2022-09-03T16:57:54.939Z,98670.56
2022-09-03T17:00:22.059Z,98662.56
2022-09-03T17:03:06.847Z,98666.16
2022-09-03T17:05:52.167Z,98663.41
2022-09-03T17:08:43.457Z,98666.44
2022-09-03T17:11:10.221Z,98662.56
2022-09-03T17:13:43.096Z,98661.78
2022-09-03T17:16:47.703Z,98661.78
2022-09-03T17:19:19.121Z,98661.78
2022-09-03T17:21:51.541Z,98663.69
2022-09-03T17:24:23.886Z,98665.63
2022-09-03T17:27:09.169Z,98663.97
2022-09-03T17:29:52.168Z,98664.50
2022-09-03T17:32:37.324Z,98676.63
2022-09-03T17:35:15.149Z,98665.03
2022-09-03T17:37:44.949Z,98679.94
2022-09-03T17:40:29.194Z,98676.88
2022-09-03T17:43:07.895Z,98678.28
2022-09-03T17:45:49.177Z,98681.56
2022-09-03T17:48:36.980Z,98677.72
2022-09-03T17:51:13.174Z,98683.22
2022-09-03T17:53:49.390Z,98674.97
2022-09-03T17:56:29.725Z,98684.06
2022-09-03T17:59:22.775Z,98689.56
2022-09-03T18:01:56.130Z,98683.22
2022-09-03T18:04:29.212Z,98687.06
2022-09-03T18:07:08.626Z,98683.22
2022-09-03T18:09:42.289Z,98684.31
2022-09-03T18:12:39.143Z,98694.25
2022-09-03T18:15:18.929Z,98694.25
2022-09-03T18:18:03.716Z,98693.97
2022-09-03T18:21:08.566Z,98693.69
2022-09-03T18:24:38.136Z,98692.06
2022-09-03T18:27:46.797Z,98696.72
2022-09-03T18:30:33.300Z,98690.38
2022-09-03T18:33:18.913Z,98689.56
2022-09-03T18:36:04.770Z,98702.50
2022-09-03T18:38:52.198Z,98701.41
2022-09-03T18:42:01.523Z,98704.41
2022-09-03T18:45:22.347Z,98698.91
2022-09-03T18:48:20.645Z,98701.97
2022-09-03T18:51:43.834Z,98703.06
2022-09-03T18:55:07.453Z,98709.66
2022-09-03T18:58:19.713Z,98706.06
2022-09-03T19:01:28.751Z,98705.22
2022-09-03T19:04:38.353Z,98700.81
2022-09-03T19:07:29.816Z,98706.84
2022-09-03T19:10:17.390Z,98704.94
2022-09-03T19:13:15.135Z,98705.19
2022-09-03T19:16:06.017Z,98713.44
2022-09-03T19:19:36.610Z,98720.06
2022-09-03T19:22:28.885Z,98707.41
2022-09-03T19:25:33.458Z,98712.91
2022-09-03T19:28:24.913Z,98710.16
2022-09-03T19:31:29.950Z,98711.25
2022-09-03T19:34:34.404Z,98719.78
2022-09-03T19:37:28.440Z,98718.94
2022-09-03T19:40:35.607Z,98721.97
2022-09-03T19:43:43.890Z,98720.06
2022-09-03T19:46:45.045Z,98719.50
2022-09-03T19:49:48.999Z,98724.16
2022-09-03T19:52:43.266Z,98730.75
2022-09-03T19:55:38.912Z,98719.75
2022-09-03T19:58:41.958Z,98721.69
2022-09-03T20:01:28.487Z,98718.94
2022-09-03T20:04:15.224Z,98733.81
2022-09-03T20:07:00.418Z,98735.72
2022-09-03T20:09:48.943Z,98734.91
2022-09-03T20:12:17.529Z,98733.22
2022-09-03T20:14:44.456Z,98737.06
2022-09-03T20:17:13.992Z,98742.56
2022-09-03T20:19:55.752Z,98739.81
2022-09-03T20:22:57.888Z,98746.44
2022-09-03T20:26:10.331Z,98748.38
2022-09-03T20:28:46.310Z,98750.28
2022-09-03T20:31:28.322Z,98745.06
2022-09-03T20:34:32.370Z,98742.28
2022-09-03T20:37:04.945Z,98741.47
2022-09-03T20:39:40.285Z,98737.09
2022-09-03T20:42:33.342Z,98739.84
2022-09-03T20:45:15.231Z,98734.34
2022-09-03T20:47:48.528Z,98730.75
2022-09-03T20:50:26.978Z,98738.16
2022-09-03T20:53:25.999Z,98743.69
2022-09-03T20:55:57.559Z,98738.44
2022-09-03T20:58:59.073Z,98737.59
2022-09-03T21:01:47.454Z,98738.69
2022-09-03T21:04:14.326Z,98735.41
2022-09-03T21:06:46.938Z,98740.34
2022-09-03T21:09:39.624Z,98737.88
2022-09-03T21:12:18.889Z,98744.72
2022-09-03T21:14:59.002Z,98744.19
2022-09-03T21:17:30.035Z,98747.19
2022-09-03T21:20:18.392Z,98750.19
2022-09-03T21:23:13.151Z,98751.31
2022-09-03T21:25:43.137Z,98746.06
2022-09-03T21:28:17.928Z,98746.31
2022-09-03T21:30:48.428Z,98751.28
2022-09-03T21:33:24.236Z,98746.88
2022-09-03T21:36:00.254Z,98753.47
2022-09-03T21:38:33.624Z,98747.97
2022-09-03T21:41:07.873Z,98754.56
2022-09-03T21:44:06.284Z,98749.34
2022-09-03T21:47:06.564Z,98746.00
2022-09-03T21:49:43.213Z,98744.34
2022-09-03T21:52:13.459Z,98740.81
2022-09-03T21:54:40.428Z,98748.22
2022-09-03T21:57:22.355Z,98746.31
2022-09-03T22:00:10.086Z,98747.38
2022-09-03T22:02:37.060Z,98743.81
2022-09-03T22:05:04.192Z,98738.56
2022-09-03T22:08:04.976Z,98739.13
2022-09-03T22:14:10.968Z,98736.91
2022-09-03T22:16:39.615Z,98746.28
2022-09-03T22:19:09.314Z,98741.84
2022-09-03T22:21:36.770Z,98746.53
2022-09-03T22:24:19.230Z,98742.94
2022-09-03T22:27:04.405Z,98745.16
2022-09-03T22:29:37.282Z,98752.28
2022-09-03T22:32:25.260Z,98755.31
2022-09-03T22:35:02.977Z,98756.16
2022-09-03T22:37:45.532Z,98749.00
2022-09-03T22:40:38.518Z,98750.66
2022-09-03T22:43:27.633Z,98747.06
2022-09-03T22:46:09.565Z,98751.75
2022-09-03T22:48:41.293Z,98750.91
2022-09-03T22:51:09.388Z,98758.06
2022-09-03T22:53:48.368Z,98749.00
2022-09-03T22:56:22.391Z,98740.75
2022-09-03T22:59:11.726Z,98744.00
2022-09-03T23:01:44.819Z,98743.19
2022-09-03T23:04:19.870Z,98740.44
2022-09-03T23:06:55.688Z,98744.00
2022-09-03T23:09:25.087Z,98747.88
2022-09-03T23:11:54.592Z,98750.03
2022-09-03T23:14:48.900Z,98746.22
2022-09-03T23:20:21.755Z,98741.78
2022-09-03T23:23:04.163Z,98745.38
2022-09-03T23:25:42.242Z,98741.78
2022-09-03T23:28:38.340Z,98744.53
2022-09-03T23:31:22.250Z,98744.53
2022-09-03T23:33:52.280Z,98740.13
2022-09-03T23:37:01.303Z,98745.63
2022-09-03T23:40:05.370Z,98742.06
2022-09-03T23:42:42.341Z,98747.56
2022-09-03T23:45:36.854Z,98740.41
2022-09-03T23:48:30.218Z,98750.59
2022-09-03T23:51:00.011Z,98742.59
2022-09-03T23:53:51.216Z,98740.13
2022-09-03T23:56:49.759Z,98751.94
2022-09-03T23:59:40.203Z,98748.38
